createdAt,value
2019-05-20T00:01:18.016Z,9.10
2019-05-20T00:03:50.905Z,8.90
2019-05-20T00:06:22.899Z,8.70
2019-05-20T00:08:55.607Z,8.85
2019-05-20T00:11:30.342Z,9.93
2019-05-20T00:14:03.199Z,9.25
2019-05-20T00:16:42.522Z,9.98
2019-05-20T00:19:15.903Z,11.70
2019-05-20T00:21:49.343Z,10.85
2019-05-20T00:24:21.390Z,11.28
2019-05-20T00:26:55.217Z,11.18
2019-05-20T00:29:27.320Z,12.18
2019-05-20T00:32:00.547Z,13.83
2019-05-20T00:34:35.821Z,13.90
2019-05-20T00:37:08.923Z,13.28
2019-05-20T00:39:41.203Z,14.75
2019-05-20T00:42:13.494Z,15.08
2019-05-20T00:44:47.376Z,13.22
2019-05-20T00:47:19.655Z,13.80
2019-05-20T00:49:51.657Z,13.45
2019-05-20T00:52:24.131Z,14.18
2019-05-20T00:54:57.419Z,13.32
2019-05-20T00:57:32.371Z,14.13
2019-05-20T01:00:06.387Z,20.57
2019-05-20T01:02:38.747Z,19.07
2019-05-20T01:05:11.171Z,15.03
2019-05-20T01:07:43.434Z,14.13
2019-05-20T01:10:16.643Z,16.25
2019-05-20T01:12:50.535Z,12.37
2019-05-20T01:15:23.137Z,13.75
2019-05-20T01:17:55.430Z,14.20
2019-05-20T01:20:29.205Z,12.15
2019-05-20T01:23:01.482Z,13.32
2019-05-20T01:25:33.536Z,15.23
2019-05-20T01:28:05.777Z,15.95
2019-05-20T01:30:37.823Z,14.15
2019-05-20T01:33:14.393Z,9.80
2019-05-20T01:35:43.808Z,10.75
2019-05-20T01:38:17.235Z,9.30
2019-05-20T01:40:49.229Z,9.53
2019-05-20T01:43:21.423Z,8.28
2019-05-20T01:45:53.473Z,8.50
2019-05-20T01:48:26.836Z,8.93
2019-05-20T01:50:59.776Z,9.85
2019-05-20T01:53:32.040Z,9.63
2019-05-20T01:56:04.091Z,10.82
2019-05-20T01:58:39.303Z,10.43
2019-05-20T02:01:13.365Z,10.45
2019-05-20T02:03:45.363Z,9.78
2019-05-20T02:06:19.080Z,14.33
2019-05-20T02:08:51.073Z,9.78
2019-05-20T02:11:24.661Z,10.25
2019-05-20T02:14:18.936Z,9.90
2019-05-20T02:16:51.287Z,10.23
2019-05-20T02:19:23.238Z,11.00
2019-05-20T02:21:55.480Z,9.78
2019-05-20T02:24:27.529Z,10.58
2019-05-20T02:27:02.134Z,15.13
2019-05-20T02:29:34.130Z,10.75
2019-05-20T02:32:06.392Z,9.83
2019-05-20T02:34:38.664Z,13.48
2019-05-20T02:37:11.388Z,10.78
2019-05-20T02:39:44.069Z,11.80
2019-05-20T02:42:17.109Z,12.37
2019-05-20T02:44:51.480Z,13.48
2019-05-20T02:47:24.185Z,12.15
2019-05-20T02:49:57.840Z,12.13
2019-05-20T02:52:30.074Z,9.70
2019-05-20T02:55:02.369Z,12.80
2019-05-20T02:57:34.675Z,17.62
2019-05-20T03:00:09.713Z,13.38
2019-05-20T03:02:43.041Z,12.75
2019-05-20T03:05:23.970Z,14.80
2019-05-20T03:07:58.270Z,14.55
2019-05-20T03:10:32.105Z,15.15
2019-05-20T03:13:06.748Z,12.90
2019-05-20T03:15:39.605Z,13.68
2019-05-20T03:18:13.950Z,17.60
2019-05-20T03:20:46.254Z,16.35
2019-05-20T03:23:25.943Z,17.40
2019-05-20T03:25:58.647Z,14.85
2019-05-20T03:28:34.368Z,16.05
2019-05-20T03:31:06.488Z,17.30
2019-05-20T03:33:40.003Z,16.40
2019-05-20T03:36:12.011Z,14.45
2019-05-20T03:38:44.722Z,15.43
2019-05-20T03:41:16.743Z,17.32
2019-05-20T03:43:50.963Z,17.50
2019-05-20T03:46:24.685Z,20.50
2019-05-20T03:48:59.699Z,16.32
2019-05-20T03:51:31.863Z,16.07
2019-05-20T03:54:05.668Z,17.45
2019-05-20T03:56:42.277Z,17.62
2019-05-20T03:59:15.564Z,16.73
2019-05-20T04:01:51.471Z,13.58
2019-05-20T04:04:25.488Z,18.17
2019-05-20T04:06:59.440Z,18.57
2019-05-20T04:09:31.079Z,18.35
2019-05-20T04:12:05.239Z,18.15
2019-05-20T04:17:25.814Z,20.57
2019-05-20T04:20:06.140Z,24.15
2019-05-20T04:22:46.920Z,24.02
2019-05-20T04:25:27.173Z,29.02
2019-05-20T04:28:04.642Z,31.15
2019-05-20T04:30:43.628Z,27.10
2019-05-20T04:33:18.949Z,36.35
2019-05-20T04:35:59.138Z,36.63
2019-05-20T04:38:38.925Z,35.83
2019-05-20T04:41:13.565Z,33.90
2019-05-20T04:43:50.268Z,36.90
2019-05-20T04:46:25.113Z,46.60
2019-05-20T04:48:57.356Z,40.80
2019-05-20T04:51:29.341Z,50.40
2019-05-20T04:54:08.889Z,41.90
2019-05-20T04:56:44.746Z,44.67
2019-05-20T04:59:22.579Z,38.25
2019-05-20T05:02:01.474Z,37.25
2019-05-20T05:04:43.800Z,43.28
2019-05-20T05:07:22.321Z,45.80
2019-05-20T05:10:02.488Z,48.15
2019-05-20T05:12:43.943Z,42.30
2019-05-20T05:15:19.506Z,50.10
2019-05-20T05:18:00.416Z,39.65
2019-05-20T05:20:38.646Z,36.68
2019-05-20T05:23:21.372Z,38.48
2019-05-20T05:26:03.262Z,40.63
2019-05-20T05:28:43.393Z,37.08
2019-05-20T05:31:21.301Z,39.95
2019-05-20T05:34:01.061Z,43.80
2019-05-20T05:36:40.696Z,42.67
2019-05-20T05:39:20.010Z,41.15
2019-05-20T05:42:00.370Z,42.73
2019-05-20T05:44:41.593Z,38.00
2019-05-20T05:47:20.651Z,38.45
2019-05-20T05:50:01.243Z,32.67
2019-05-20T05:52:44.384Z,34.33
2019-05-20T05:55:23.222Z,36.83
2019-05-20T05:58:00.854Z,34.25
2019-05-20T06:00:37.736Z,32.98
2019-05-20T06:03:13.753Z,35.30
2019-05-20T06:06:10.559Z,35.13
2019-05-20T06:08:39.573Z,29.65
2019-05-20T06:11:16.793Z,34.08
2019-05-20T06:13:54.972Z,35.78
2019-05-20T06:16:37.177Z,45.12
2019-05-20T06:19:17.786Z,44.60
2019-05-20T06:22:02.631Z,41.50
2019-05-20T06:24:46.066Z,44.05
2019-05-20T06:27:26.843Z,46.42
2019-05-20T06:30:09.284Z,47.38
2019-05-20T06:32:51.004Z,50.43
2019-05-20T06:35:31.195Z,53.87
2019-05-20T06:38:18.878Z,51.80
2019-05-20T06:40:58.398Z,55.98
2019-05-20T06:43:44.380Z,53.02
2019-05-20T06:46:22.575Z,53.38
2019-05-20T06:48:54.179Z,53.10
2019-05-20T06:54:11.032Z,62.67
2019-05-20T06:56:49.584Z,50.50
2019-05-20T06:59:30.251Z,52.58
2019-05-20T07:02:08.275Z,48.63
2019-05-20T07:04:49.417Z,50.17
2019-05-20T07:10:22.039Z,43.98
2019-05-20T07:13:09.321Z,38.67
2019-05-20T07:15:44.226Z,41.95
2019-05-20T07:18:15.780Z,37.35
2019-05-20T07:20:49.709Z,41.10
2019-05-20T07:23:22.978Z,39.88
2019-05-20T07:25:56.563Z,42.58
2019-05-20T07:28:30.820Z,43.73
2019-05-20T07:33:38.127Z,40.98
2019-05-20T07:36:11.978Z,41.65
2019-05-20T07:38:46.876Z,42.88
2019-05-20T07:41:25.214Z,41.50
2019-05-20T07:43:59.407Z,41.42
2019-05-20T07:49:31.162Z,44.35
2019-05-20T07:52:15.149Z,45.80
2019-05-20T07:54:51.180Z,47.38
2019-05-20T08:00:03.442Z,44.25
2019-05-20T08:02:38.951Z,45.43
2019-05-20T08:05:14.429Z,41.58
2019-05-20T08:07:52.335Z,40.40
2019-05-20T08:10:24.819Z,40.30
2019-05-20T08:12:58.535Z,40.10
2019-05-20T08:15:32.369Z,37.83
2019-05-20T08:18:08.115Z,41.15
2019-05-20T08:20:48.581Z,38.23
2019-05-20T08:23:27.263Z,39.42
2019-05-20T08:25:59.315Z,40.88
2019-05-20T08:28:34.771Z,44.85
2019-05-20T08:31:07.084Z,40.38
2019-05-20T08:33:39.122Z,37.55
2019-05-20T08:36:11.321Z,35.25
2019-05-20T08:38:47.741Z,32.28
2019-05-20T08:41:19.701Z,38.00
2019-05-20T08:43:52.988Z,34.92
2019-05-20T08:46:25.965Z,37.38
2019-05-20T08:48:59.126Z,35.28
2019-05-20T08:51:34.159Z,33.18
2019-05-20T08:54:10.562Z,28.32
2019-05-20T08:56:48.716Z,28.45
2019-05-20T08:59:20.063Z,29.63
2019-05-20T09:04:25.915Z,25.77
2019-05-20T09:06:59.131Z,28.27
2019-05-20T09:09:32.665Z,26.87
2019-05-20T09:12:06.534Z,29.77
2019-05-20T09:14:40.853Z,28.42
2019-05-20T09:17:12.199Z,27.80
2019-05-20T09:19:49.861Z,28.98
2019-05-20T09:22:24.699Z,25.52
2019-05-20T09:24:57.000Z,26.27
2019-05-20T09:27:32.713Z,25.52
2019-05-20T09:30:14.143Z,23.00
2019-05-20T09:32:47.966Z,23.98
2019-05-20T09:35:19.437Z,21.90
2019-05-20T09:37:51.114Z,25.20
2019-05-20T09:40:38.257Z,23.92
2019-05-20T09:43:12.502Z,25.82
2019-05-20T09:45:45.251Z,24.57
2019-05-20T09:48:16.890Z,25.23
2019-05-20T09:50:52.538Z,25.12
2019-05-20T09:53:26.956Z,23.92
2019-05-20T09:56:01.507Z,26.23
2019-05-20T09:58:35.795Z,27.13
2019-05-20T10:03:45.113Z,26.60
2019-05-20T10:06:24.528Z,23.45
2019-05-20T10:08:58.244Z,26.75
2019-05-20T10:11:32.703Z,27.55
2019-05-20T10:14:06.764Z,26.20
2019-05-20T10:16:56.464Z,26.07
2019-05-20T10:19:28.262Z,28.60
2019-05-20T10:22:00.414Z,27.42
2019-05-20T10:24:31.792Z,26.02
2019-05-20T10:27:03.431Z,25.25
2019-05-20T10:29:36.071Z,25.12
2019-05-20T10:34:41.945Z,32.53
2019-05-20T10:37:14.675Z,31.90
2019-05-20T10:39:57.528Z,29.65
2019-05-20T10:42:33.782Z,30.37
2019-05-20T10:45:06.491Z,29.12
2019-05-20T10:47:39.929Z,29.48
2019-05-20T10:50:11.654Z,29.65
2019-05-20T10:52:48.934Z,34.05
2019-05-20T10:55:26.083Z,32.20
2019-05-20T10:57:58.871Z,31.97
2019-05-20T11:00:30.622Z,31.40
2019-05-20T11:03:03.007Z,31.82
2019-05-20T11:05:36.002Z,32.25
2019-05-20T11:08:16.480Z,33.85
2019-05-20T11:10:49.646Z,36.03
2019-05-20T11:13:23.589Z,38.67
2019-05-20T11:15:56.682Z,37.95
2019-05-20T11:18:29.245Z,35.08
2019-05-20T11:21:04.851Z,34.88
2019-05-20T11:23:38.478Z,35.13
2019-05-20T11:26:15.099Z,34.20
2019-05-20T11:28:50.404Z,42.62
2019-05-20T11:31:22.651Z,41.40
2019-05-20T11:33:58.594Z,38.30
2019-05-20T11:36:43.211Z,38.00
2019-05-20T11:39:31.316Z,38.50
2019-05-20T11:41:54.423Z,43.42
2019-05-20T11:44:26.523Z,41.05
2019-05-20T11:46:58.998Z,45.10
2019-05-20T11:49:30.520Z,37.23
2019-05-20T11:52:11.460Z,42.85
2019-05-20T11:54:45.656Z,41.90
2019-05-20T11:57:19.767Z,45.00
2019-05-20T11:59:52.528Z,40.63
2019-05-20T12:02:30.268Z,43.30
2019-05-20T12:05:04.611Z,48.38
2019-05-20T12:07:37.997Z,47.75
2019-05-20T12:10:15.310Z,46.88
2019-05-20T12:12:48.954Z,50.30
2019-05-20T12:15:21.590Z,51.05
2019-05-20T12:17:57.035Z,53.23
2019-05-20T12:20:29.217Z,57.15
2019-05-20T12:23:07.191Z,53.15
2019-05-20T12:25:40.608Z,55.20
2019-05-20T12:28:14.306Z,53.05
2019-05-20T12:30:47.029Z,58.65
2019-05-20T12:33:20.789Z,54.80
2019-05-20T12:35:56.026Z,55.58
2019-05-20T12:38:30.234Z,55.20
2019-05-20T12:41:04.182Z,58.23
2019-05-20T12:43:37.317Z,56.70
2019-05-20T12:46:10.111Z,59.10
2019-05-20T12:48:42.710Z,58.45
2019-05-20T12:51:15.168Z,59.85
2019-05-20T12:53:49.545Z,54.53
2019-05-20T12:56:21.844Z,56.75
2019-05-20T13:01:33.244Z,55.23
2019-05-20T13:04:09.591Z,66.30
2019-05-20T13:06:44.267Z,58.83
2019-05-20T13:09:19.226Z,60.60
2019-05-20T13:11:52.513Z,63.85
2019-05-20T13:14:29.260Z,60.03
2019-05-20T13:17:05.131Z,61.45
2019-05-20T13:19:41.159Z,63.87
2019-05-20T13:22:14.777Z,58.55
2019-05-20T13:24:46.753Z,57.85
2019-05-20T13:27:18.371Z,67.17
2019-05-20T13:29:51.615Z,59.08
2019-05-20T13:32:28.999Z,60.60
2019-05-20T13:35:08.365Z,67.12
2019-05-20T13:37:41.680Z,68.17
2019-05-20T13:40:15.877Z,65.97
2019-05-20T13:42:51.478Z,68.17
2019-05-20T13:45:22.905Z,64.27
2019-05-20T13:47:55.176Z,66.40
2019-05-20T13:50:28.820Z,72.70
2019-05-20T13:53:05.323Z,75.67
2019-05-20T13:55:37.413Z,76.85
2019-05-20T13:58:16.722Z,82.60
2019-05-20T14:00:52.087Z,83.55
2019-05-20T14:03:23.430Z,82.17
2019-05-20T14:06:06.874Z,85.47
2019-05-20T14:08:40.033Z,80.77
2019-05-20T14:11:11.724Z,80.53
2019-05-20T14:13:44.817Z,85.03
2019-05-20T14:16:19.051Z,84.93
2019-05-20T14:18:51.158Z,85.95
2019-05-20T14:21:23.288Z,89.80
2019-05-20T14:23:56.393Z,88.33
2019-05-20T14:26:29.441Z,92.00
2019-05-20T14:29:00.989Z,81.10
2019-05-20T14:31:32.388Z,83.20
2019-05-20T14:34:06.601Z,77.97
2019-05-20T14:36:40.234Z,83.72
2019-05-20T14:39:12.203Z,88.35
2019-05-20T14:41:45.170Z,81.10
2019-05-20T14:44:20.381Z,89.20
2019-05-20T14:46:52.155Z,81.63
2019-05-20T14:49:23.799Z,84.85
2019-05-20T14:51:57.093Z,83.47
2019-05-20T14:56:59.803Z,80.75
2019-05-20T14:59:32.392Z,90.03
2019-05-20T15:02:05.189Z,85.20
2019-05-20T15:04:38.232Z,85.35
2019-05-20T15:09:57.461Z,77.45
2019-05-20T15:12:32.649Z,78.15
2019-05-20T15:15:05.208Z,79.12
2019-05-20T15:17:37.064Z,78.10
2019-05-20T15:20:10.199Z,80.97
2019-05-20T15:22:42.439Z,82.57
2019-05-20T15:25:14.681Z,77.70
2019-05-20T15:27:49.719Z,81.22
2019-05-20T15:30:19.609Z,75.83
2019-05-20T15:32:54.619Z,80.20
2019-05-20T15:35:25.607Z,72.12
2019-05-20T15:37:57.073Z,83.50
2019-05-20T15:40:28.478Z,80.03
2019-05-20T15:43:00.147Z,85.00
2019-05-20T15:45:31.556Z,84.60
2019-05-20T15:48:05.280Z,76.97
2019-05-20T15:50:36.906Z,77.45
2019-05-20T15:53:11.940Z,80.60
2019-05-20T15:55:46.363Z,76.75
2019-05-20T15:58:23.606Z,81.22
2019-05-20T16:00:55.257Z,84.62
2019-05-20T16:03:26.758Z,83.33
2019-05-20T16:05:59.966Z,86.22
2019-05-20T16:11:06.899Z,88.58
2019-05-20T16:13:37.479Z,87.37
2019-05-20T16:16:12.258Z,85.55
2019-05-20T16:18:42.776Z,81.15
2019-05-20T16:21:17.895Z,83.82
2019-05-20T16:23:50.524Z,88.87
2019-05-20T16:26:24.156Z,86.15
2019-05-20T16:28:57.350Z,85.30
2019-05-20T16:31:29.019Z,89.17
2019-05-20T16:34:00.686Z,88.58
2019-05-20T16:36:38.950Z,91.12
2019-05-20T16:39:16.771Z,89.15
2019-05-20T16:41:48.386Z,90.65
2019-05-20T16:44:20.368Z,88.42
2019-05-20T16:46:53.386Z,91.85
2019-05-20T16:49:24.870Z,85.60
2019-05-20T16:51:57.918Z,86.02
2019-05-20T16:54:30.086Z,86.20
2019-05-20T16:57:01.539Z,90.97
2019-05-20T16:59:34.771Z,84.35
2019-05-20T17:02:06.188Z,88.67
2019-05-20T17:04:39.257Z,86.42
2019-05-20T17:07:13.756Z,82.80
2019-05-20T17:09:47.124Z,78.33
2019-05-20T17:12:21.636Z,87.37
2019-05-20T17:14:54.017Z,83.72
2019-05-20T17:17:26.269Z,77.55
2019-05-20T17:19:57.869Z,82.40
2019-05-20T17:22:30.695Z,83.45
2019-05-20T17:25:02.970Z,80.77
2019-05-20T17:27:36.142Z,87.02
2019-05-20T17:30:08.729Z,85.30
2019-05-20T17:32:41.301Z,86.63
2019-05-20T17:35:14.325Z,77.53
2019-05-20T17:37:45.892Z,87.75
2019-05-20T17:40:22.279Z,73.87
2019-05-20T17:42:55.205Z,79.75
2019-05-20T17:45:28.248Z,77.40
2019-05-20T17:47:59.885Z,75.67
2019-05-20T17:50:31.563Z,73.90
2019-05-20T17:53:08.866Z,84.05
2019-05-20T17:55:41.867Z,80.87
2019-05-20T17:58:18.620Z,82.70
2019-05-20T18:00:51.927Z,78.33
2019-05-20T18:03:26.459Z,79.03
2019-05-20T18:05:58.555Z,75.87
2019-05-20T19:34:32.759Z,13.58
